Salina, Pennsylvania
Current Conditions -  °F | °C
As of 6:45 PM on Monday 24 Nov 2014 (Local Time) from KLBE Reporting Station
Clear Clear  
Wind Chill: 59°   Ceiling: Unl
Heat Index: 59°   Visibility: 10mi
Dew Point: 41°   Wind: 21mph
Humidity: 51%   Direction: 270°W
Pressure: 29.67"   Gusts: 32mph
Location:  40.52°N, 79.5°W
Report Text: KLBE 242345Z 27018G28KT 10SM SKC 15/05 A2967
Loading
Personal Weather Stations






























Interactive Weather Map New forecast layout! Learn more

10-Day Weather Forecast

Advertisements
Track Severe Weather on mobile